createdAt,value
2022-12-15T00:01:42.979Z,98606.69
2022-12-15T00:04:28.163Z,98611.59
2022-12-15T00:07:13.263Z,98611.44
2022-12-15T00:09:58.434Z,98607.66
2022-12-15T00:12:43.445Z,98605.66
2022-12-15T00:15:28.506Z,98612.44
2022-12-15T00:18:13.550Z,98610.41
2022-12-15T00:20:58.737Z,98607.81
2022-12-15T00:23:43.960Z,98601.72
2022-12-15T00:26:28.985Z,98617.25
2022-12-15T00:29:13.957Z,98602.34
2022-12-15T00:31:59.176Z,98600.69
2022-12-15T00:34:44.507Z,98591.97
2022-12-15T00:37:29.623Z,98594.38
2022-12-15T00:39:58.984Z,98601.31
2022-12-15T00:42:28.815Z,98612.91
2022-12-15T00:44:56.352Z,98606.78
2022-12-15T00:47:23.079Z,98604.13
2022-12-15T00:50:08.281Z,98606.50
2022-12-15T00:52:54.028Z,98596.34
2022-12-15T00:55:39.446Z,98594.97
2022-12-15T00:58:24.846Z,98589.38
2022-12-15T01:01:10.239Z,98580.78
2022-12-15T01:03:55.084Z,98578.00
2022-12-15T01:06:40.400Z,98586.44
2022-12-15T01:09:27.889Z,98593.75
2022-12-15T01:12:13.609Z,98586.31
2022-12-15T01:14:59.465Z,98588.00
2022-12-15T01:17:45.091Z,98594.28
2022-12-15T01:20:18.420Z,98588.28
2022-12-15T01:22:55.901Z,98597.44
2022-12-15T01:25:24.937Z,98596.34
2022-12-15T01:27:51.722Z,98593.19
2022-12-15T01:30:21.035Z,98590.13
2022-12-15T01:32:47.553Z,98587.06
2022-12-15T01:35:14.266Z,98588.22
2022-12-15T01:37:40.731Z,98590.81
2022-12-15T01:40:27.588Z,98594.31
2022-12-15T01:42:54.132Z,98591.63
2022-12-15T01:45:41.910Z,98600.97
2022-12-15T01:48:10.571Z,98599.50
2022-12-15T01:50:43.170Z,98598.38
2022-12-15T01:53:10.835Z,98596.19
2022-12-15T01:55:39.071Z,98587.16
2022-12-15T01:58:07.215Z,98591.34
2022-12-15T02:00:34.586Z,98586.84
2022-12-15T02:03:02.201Z,98584.38
2022-12-15T02:05:30.677Z,98589.47
2022-12-15T02:07:58.217Z,98586.69
2022-12-15T02:10:29.259Z,98586.13
2022-12-15T02:13:03.399Z,98579.09
2022-12-15T02:15:48.052Z,98585.06
2022-12-15T02:18:23.068Z,98595.59
2022-12-15T02:21:29.859Z,98598.19
2022-12-15T02:24:19.882Z,98593.00
2022-12-15T02:27:26.961Z,98597.75
2022-12-15T02:30:15.600Z,98598.09
2022-12-15T02:33:01.331Z,98589.69
2022-12-15T02:35:36.262Z,98604.41
2022-12-15T02:38:02.677Z,98596.53
2022-12-15T02:40:30.717Z,98589.13
2022-12-15T02:42:58.357Z,98600.41
2022-12-15T02:46:06.630Z,98606.16
2022-12-15T02:49:13.931Z,98607.09
2022-12-15T02:51:54.501Z,98602.66
2022-12-15T02:54:39.775Z,98615.06
2022-12-15T02:57:26.933Z,98609.59
2022-12-15T03:00:06.235Z,98607.47
2022-12-15T03:02:34.593Z,98605.81
2022-12-15T03:05:01.367Z,98620.41
2022-12-15T03:07:28.431Z,98609.47
2022-12-15T03:10:01.291Z,98616.91
2022-12-15T03:12:27.749Z,98603.81
2022-12-15T03:14:54.264Z,98601.53
2022-12-15T03:17:20.694Z,98611.50
2022-12-15T03:19:47.129Z,98608.91
2022-12-15T03:22:16.371Z,98614.28
2022-12-15T03:24:43.013Z,98618.09
2022-12-15T03:27:09.650Z,98612.44
2022-12-15T03:29:36.209Z,98610.31
2022-12-15T03:32:02.806Z,98615.53
2022-12-15T03:34:29.351Z,98620.19
2022-12-15T03:36:55.953Z,98618.88
2022-12-15T03:39:22.452Z,98631.59
2022-12-15T03:41:48.891Z,98640.66
2022-12-15T03:44:15.291Z,98641.31
2022-12-15T03:46:41.845Z,98641.31
2022-12-15T03:49:08.292Z,98643.78
2022-12-15T03:51:34.776Z,98643.78
2022-12-15T03:54:01.252Z,98641.09
2022-12-15T03:56:27.671Z,98649.63
2022-12-15T03:58:54.276Z,98645.47
2022-12-15T04:01:20.797Z,98635.50
2022-12-15T04:03:47.638Z,98651.50
2022-12-15T04:06:14.292Z,98648.91
2022-12-15T04:08:40.809Z,98645.84
2022-12-15T04:11:07.330Z,98638.06
2022-12-15T04:13:34.339Z,98653.34
2022-12-15T04:16:03.939Z,98640.00
2022-12-15T04:18:32.175Z,98645.94
2022-12-15T04:20:58.809Z,98656.22
2022-12-15T04:23:25.428Z,98654.59
2022-12-15T04:26:10.618Z,98668.00
2022-12-15T04:28:55.631Z,98663.69
2022-12-15T04:31:51.340Z,98666.09
2022-12-15T04:34:42.171Z,98666.28
2022-12-15T04:37:29.898Z,98670.13
2022-12-15T04:40:14.837Z,98666.28
2022-12-15T04:43:02.571Z,98678.75
2022-12-15T04:45:47.787Z,98678.09
2022-12-15T04:48:33.189Z,98678.09
2022-12-15T04:51:18.432Z,98676.94
2022-12-15T04:54:04.652Z,98681.75
2022-12-15T04:56:50.890Z,98687.13
2022-12-15T04:59:36.602Z,98691.38
2022-12-15T05:02:21.646Z,98697.44
2022-12-15T05:05:06.616Z,98707.81
2022-12-15T05:07:51.991Z,98707.53
2022-12-15T05:10:37.196Z,98712.09
2022-12-15T05:13:24.394Z,98713.66
2022-12-15T05:16:09.596Z,98705.66
2022-12-15T05:18:54.776Z,98717.28
2022-12-15T05:21:40.124Z,98723.97
2022-12-15T05:24:25.293Z,98725.53
2022-12-15T05:27:10.902Z,98730.59
2022-12-15T05:29:55.940Z,98735.38
2022-12-15T05:32:22.507Z,98740.66
2022-12-15T05:34:48.941Z,98740.00
2022-12-15T05:37:15.365Z,98748.31
2022-12-15T05:39:42.310Z,98750.16
2022-12-15T05:42:08.946Z,98759.97
2022-12-15T05:44:35.383Z,98762.31
2022-12-15T05:47:01.989Z,98761.28
2022-12-15T05:49:28.423Z,98768.88
2022-12-15T05:51:54.898Z,98764.63
2022-12-15T05:54:21.452Z,98776.50
2022-12-15T05:56:50.116Z,98781.50
2022-12-15T05:59:17.438Z,98779.47
2022-12-15T06:01:44.075Z,98791.88
2022-12-15T06:04:13.037Z,98796.69
2022-12-15T06:06:40.302Z,98800.91
2022-12-15T06:09:06.915Z,98799.22
2022-12-15T06:11:33.417Z,98815.78
2022-12-15T06:13:59.844Z,98819.31
2022-12-15T06:16:28.317Z,98824.69
2022-12-15T06:18:58.531Z,98833.75
2022-12-15T06:21:27.952Z,98828.97
2022-12-15T06:23:55.824Z,98832.81
2022-12-15T06:26:28.151Z,98839.34
2022-12-15T06:28:57.014Z,98844.25
2022-12-15T06:31:25.721Z,98841.53
2022-12-15T06:33:59.171Z,98845.22
2022-12-15T06:36:28.679Z,98851.56
2022-12-15T06:38:58.894Z,98864.13
2022-12-15T06:41:25.417Z,98872.97
2022-12-15T06:43:53.522Z,98884.41
2022-12-15T06:46:20.353Z,98877.66
2022-12-15T06:48:47.093Z,98886.19
2022-12-15T06:51:17.109Z,98889.09
2022-12-15T06:54:04.895Z,98885.69
2022-12-15T06:56:36.347Z,98892.28
2022-12-15T06:59:05.382Z,98891.56
2022-12-15T07:01:33.222Z,98896.56
2022-12-15T07:04:01.829Z,98898.72
2022-12-15T07:06:34.162Z,98900.34
2022-12-15T07:09:00.620Z,98904.66
2022-12-15T07:11:27.134Z,98913.63
2022-12-15T07:13:54.359Z,98909.09
2022-12-15T07:16:22.273Z,98910.97
2022-12-15T07:18:48.782Z,98914.88
2022-12-15T07:21:15.253Z,98931.00
2022-12-15T07:23:58.061Z,98933.84
2022-12-15T07:26:25.648Z,98938.84
2022-12-15T07:28:53.459Z,98943.44
2022-12-15T07:31:20.393Z,98949.88
2022-12-15T07:33:48.379Z,98958.72
2022-12-15T07:36:15.161Z,98959.50
2022-12-15T07:38:41.683Z,98963.78
2022-12-15T07:41:09.532Z,98963.00
2022-12-15T07:43:36.755Z,98968.78
2022-12-15T07:46:05.098Z,98977.25
2022-12-15T07:48:32.676Z,98979.69
2022-12-15T07:51:07.374Z,98982.63
2022-12-15T07:53:36.011Z,98985.22
2022-12-15T07:56:08.831Z,98989.81
2022-12-15T07:58:36.877Z,98997.00
2022-12-15T08:01:06.083Z,98991.56
2022-12-15T08:03:33.245Z,98997.97
2022-12-15T08:06:04.902Z,99004.38
2022-12-15T08:08:35.349Z,99005.63
2022-12-15T08:11:06.256Z,99007.06
2022-12-15T08:16:21.331Z,99024.97
2022-12-15T08:18:48.802Z,99019.59
2022-12-15T08:21:15.356Z,99022.97
2022-12-15T08:23:41.769Z,99034.25
2022-12-15T08:26:10.613Z,99037.03
2022-12-15T08:28:38.426Z,99038.09
2022-12-15T08:31:10.320Z,99049.16
2022-12-15T08:33:37.816Z,99048.91
2022-12-15T08:36:08.186Z,99053.28
2022-12-15T08:38:35.832Z,99057.72
2022-12-15T08:41:19.680Z,99059.22
2022-12-15T08:43:49.065Z,99064.22
2022-12-15T08:46:27.443Z,99067.88
2022-12-15T08:48:54.456Z,99074.66
2022-12-15T08:51:22.494Z,99069.75
2022-12-15T08:53:49.366Z,99070.22
2022-12-15T08:56:18.398Z,99073.28
2022-12-15T08:58:46.583Z,99070.94
2022-12-15T09:01:22.445Z,99068.81
2022-12-15T09:03:51.560Z,99080.13
2022-12-15T09:06:20.844Z,99085.38
2022-12-15T09:08:48.570Z,99087.97
2022-12-15T09:11:17.609Z,99086.31
2022-12-15T09:13:44.491Z,99096.34
2022-12-15T09:16:14.054Z,99090.72
2022-12-15T09:18:59.649Z,99097.53
2022-12-15T09:21:29.064Z,99096.56
2022-12-15T09:24:00.733Z,99101.91
2022-12-15T09:26:33.029Z,99100.75
2022-12-15T09:29:00.183Z,99100.88
2022-12-15T09:31:32.768Z,99107.59
2022-12-15T09:34:00.587Z,99108.38
2022-12-15T09:36:27.656Z,99116.16
2022-12-15T09:38:54.166Z,99116.72
2022-12-15T09:41:24.254Z,99122.50
2022-12-15T09:43:53.995Z,99134.28
2022-12-15T09:46:41.956Z,99132.47
2022-12-15T09:49:18.341Z,99130.22
2022-12-15T09:51:50.277Z,99127.16
2022-12-15T09:54:16.735Z,99123.22
2022-12-15T09:56:56.072Z,99126.88
2022-12-15T09:59:47.079Z,99129.88
2022-12-15T10:02:24.586Z,99125.31
2022-12-15T10:05:50.141Z,99122.22
2022-12-15T10:08:15.555Z,99138.13
2022-12-15T10:10:57.844Z,99147.09
2022-12-15T10:13:53.500Z,99146.69
2022-12-15T10:16:27.630Z,99146.03
2022-12-15T10:19:03.419Z,99147.91
2022-12-15T10:21:32.433Z,99149.31
2022-12-15T10:24:12.660Z,99154.09
2022-12-15T10:26:39.930Z,99160.81
2022-12-15T10:29:23.239Z,99165.38
2022-12-15T10:31:55.011Z,99166.84
2022-12-15T10:34:29.476Z,99163.72
2022-12-15T10:36:57.526Z,99168.03
2022-12-15T10:39:29.362Z,99170.03
2022-12-15T10:42:39.550Z,99176.88
2022-12-15T10:45:29.867Z,99177.03
2022-12-15T10:47:59.731Z,99179.63
2022-12-15T10:50:27.635Z,99186.13
2022-12-15T10:52:54.196Z,99187.41
2022-12-15T10:55:43.779Z,99192.47
2022-12-15T10:58:22.023Z,99189.56
2022-12-15T11:00:50.858Z,99190.19
2022-12-15T11:03:26.231Z,99193.84
2022-12-15T11:05:54.790Z,99199.25
2022-12-15T11:08:22.580Z,99195.75
2022-12-15T11:11:26.010Z,99195.66
2022-12-15T11:14:10.252Z,99211.69
2022-12-15T11:16:43.966Z,99203.69
2022-12-15T11:19:16.929Z,99215.72
2022-12-15T11:21:49.051Z,99202.69
2022-12-15T11:24:21.851Z,99221.13
2022-12-15T11:26:56.299Z,99217.72
2022-12-15T11:29:59.867Z,99218.72
2022-12-15T11:32:29.688Z,99229.91
2022-12-15T11:34:56.467Z,99228.09
2022-12-15T11:40:25.487Z,99235.53
2022-12-15T11:42:51.876Z,99243.47
2022-12-15T11:45:25.785Z,99250.53
2022-12-15T11:48:21.830Z,99249.06
2022-12-15T11:51:07.064Z,99252.75
2022-12-15T11:53:54.245Z,99256.50
2022-12-15T11:56:30.847Z,99259.31
2022-12-15T11:59:15.549Z,99265.59
2022-12-15T12:01:55.269Z,99264.22
2022-12-15T12:04:55.710Z,99266.75
2022-12-15T12:07:41.782Z,99273.53
2022-12-15T12:10:23.187Z,99275.31
2022-12-15T12:12:53.809Z,99275.59
2022-12-15T12:15:28.175Z,99279.53
2022-12-15T12:18:27.156Z,99287.38
2022-12-15T12:21:01.596Z,99291.59
2022-12-15T12:23:44.066Z,99298.91
2022-12-15T12:26:15.939Z,99295.13
2022-12-15T12:28:48.637Z,99291.03
2022-12-15T12:31:34.547Z,99301.75
2022-12-15T12:34:04.433Z,99297.97
2022-12-15T12:36:30.983Z,99309.63
2022-12-15T12:38:57.896Z,99309.91
2022-12-15T12:41:33.369Z,99318.94
2022-12-15T12:44:04.542Z,99321.22
2022-12-15T12:46:34.385Z,99322.66
2022-12-15T12:49:07.006Z,99324.41
2022-12-15T12:51:38.698Z,99320.44
2022-12-15T12:54:36.093Z,99322.22
2022-12-15T12:57:29.614Z,99325.47
2022-12-15T13:00:01.273Z,99332.88
2022-12-15T13:02:27.793Z,99336.69
2022-12-15T13:05:01.481Z,99343.72
2022-12-15T13:07:40.648Z,99337.22
2022-12-15T13:10:21.613Z,99340.75
2022-12-15T13:12:55.888Z,99349.41
2022-12-15T13:15:39.170Z,99356.72
2022-12-15T13:18:25.070Z,99348.44
2022-12-15T13:20:55.847Z,99349.16
2022-12-15T13:23:22.363Z,99347.88
2022-12-15T13:25:57.491Z,99360.75
2022-12-15T13:28:39.072Z,99360.06
2022-12-15T13:31:18.009Z,99359.78
2022-12-15T13:34:10.379Z,99364.84
2022-12-15T13:36:36.756Z,99373.09
2022-12-15T13:39:15.239Z,99367.69
2022-12-15T13:42:23.647Z,99382.59
2022-12-15T13:44:41.866Z,99386.03
2022-12-15T13:47:14.666Z,99387.28
2022-12-15T13:49:53.098Z,99397.81
2022-12-15T13:55:37.557Z,99397.66
2022-12-15T13:58:13.534Z,99395.78
2022-12-15T14:00:48.808Z,99408.81
2022-12-15T14:03:17.948Z,99418.56
2022-12-15T14:05:52.668Z,99408.03
2022-12-15T14:08:21.269Z,99402.44
2022-12-15T14:10:56.084Z,99410.09
2022-12-15T14:13:32.622Z,99409.28
2022-12-15T14:16:04.890Z,99403.41
2022-12-15T14:18:34.112Z,99411.28
2022-12-15T14:21:01.968Z,99412.47
2022-12-15T14:23:32.267Z,99404.06
2022-12-15T14:26:13.526Z,99400.59
2022-12-15T14:28:42.082Z,99403.81
2022-12-15T14:31:20.546Z,99406.72
2022-12-15T14:33:50.799Z,99400.25
2022-12-15T14:36:19.642Z,99407.50
2022-12-15T14:39:02.238Z,99416.53
2022-12-15T14:41:32.267Z,99396.69
2022-12-15T14:46:54.952Z,99407.69
2022-12-15T14:49:24.174Z,99419.47
2022-12-15T14:51:54.055Z,99416.00
2022-12-15T14:54:39.049Z,99422.97
2022-12-15T14:57:17.385Z,99426.91
2022-12-15T14:59:45.447Z,99428.31
2022-12-15T15:02:13.806Z,99432.06
2022-12-15T15:03:06.023Z,99410.69
2022-12-15T15:03:09.173Z,99236.84
2022-12-15T15:03:10.263Z,99393.72
2022-12-15T15:04:41.334Z,99440.03
2022-12-15T15:07:16.908Z,99444.25
2022-12-15T15:09:44.909Z,99444.03
2022-12-15T15:12:19.802Z,99449.53
2022-12-15T15:14:48.808Z,99451.81
2022-12-15T15:17:16.959Z,99455.28
2022-12-15T15:19:54.949Z,99458.66
2022-12-15T15:22:31.795Z,99463.69
2022-12-15T15:24:58.340Z,99462.34
2022-12-15T15:27:34.870Z,99462.59
2022-12-15T15:30:14.389Z,99476.59
2022-12-15T15:33:13.639Z,99462.03
2022-12-15T15:35:43.705Z,99471.94
2022-12-15T15:38:24.880Z,99465.19
2022-12-15T15:40:56.057Z,99475.69
2022-12-15T15:43:23.977Z,99469.63
2022-12-15T15:45:50.850Z,99474.06
2022-12-15T15:48:26.413Z,99476.50
2022-12-15T15:50:53.315Z,99486.50
2022-12-15T15:53:22.897Z,99498.97
2022-12-15T15:55:51.443Z,99501.22
2022-12-15T15:58:17.917Z,99500.97
2022-12-15T16:00:44.465Z,99504.97
2022-12-15T16:03:11.223Z,99511.59
2022-12-15T16:05:38.187Z,99510.75
2022-12-15T16:08:05.149Z,99505.16
2022-12-15T16:10:34.519Z,99513.59
2022-12-15T16:13:01.980Z,99526.94
2022-12-15T16:15:32.773Z,99526.88
2022-12-15T16:17:59.521Z,99537.56
2022-12-15T16:20:28.958Z,99535.75
2022-12-15T16:23:04.794Z,99543.28
2022-12-15T16:25:42.439Z,99549.75
2022-12-15T16:28:15.982Z,99563.94
2022-12-15T16:30:43.362Z,99559.66
2022-12-15T16:33:10.985Z,99563.88
2022-12-15T16:35:38.021Z,99559.38
2022-12-15T16:38:05.905Z,99563.66
2022-12-15T16:40:38.010Z,99567.50
2022-12-15T16:43:17.541Z,99569.63
2022-12-15T16:45:45.555Z,99573.13
2022-12-15T16:48:12.753Z,99578.69
2022-12-15T16:50:41.732Z,99580.47
2022-12-15T16:53:20.343Z,99584.16
2022-12-15T16:55:47.082Z,99582.31
2022-12-15T16:58:15.711Z,99587.75
2022-12-15T17:00:42.326Z,99580.47
2022-12-15T17:03:16.075Z,99581.75
2022-12-15T17:05:44.754Z,99584.81
2022-12-15T17:08:23.208Z,99591.66
2022-12-15T17:10:50.348Z,99589.72
2022-12-15T17:13:20.264Z,99595.75
2022-12-15T17:15:47.264Z,99598.63
2022-12-15T17:18:14.996Z,99604.63
2022-12-15T17:20:41.526Z,99611.34
2022-12-15T17:23:13.444Z,99615.00
2022-12-15T17:26:18.619Z,99604.69
2022-12-15T17:28:33.875Z,99595.13
2022-12-15T17:31:00.619Z,99598.31
2022-12-15T17:33:32.629Z,99599.00
2022-12-15T17:36:04.596Z,99595.63
2022-12-15T17:38:31.625Z,99592.94
2022-12-15T17:40:58.152Z,99592.34
2022-12-15T17:43:31.903Z,99593.31
2022-12-15T17:46:01.836Z,99589.34
2022-12-15T17:48:28.387Z,99595.31
2022-12-15T17:50:54.866Z,99587.03
2022-12-15T17:53:22.881Z,99587.09
2022-12-15T17:55:50.102Z,99598.00
2022-12-15T17:58:26.815Z,99592.69
2022-12-15T18:00:55.573Z,99601.28
2022-12-15T18:03:23.291Z,99601.97
2022-12-15T18:05:51.949Z,99599.16
2022-12-15T18:08:21.834Z,99594.38
2022-12-15T18:10:50.606Z,99601.97
2022-12-15T18:13:19.881Z,99603.09
2022-12-15T18:15:47.335Z,99604.63
2022-12-15T18:18:14.646Z,99608.13
2022-12-15T18:20:41.460Z,99610.53
2022-12-15T18:23:14.943Z,99609.53
2022-12-15T18:25:42.301Z,99603.19
2022-12-15T18:28:19.670Z,99615.72
2022-12-15T18:30:46.508Z,99616.00
2022-12-15T18:33:13.133Z,99613.19
2022-12-15T18:35:41.733Z,99612.84
2022-12-15T18:38:22.345Z,99619.50
2022-12-15T18:40:50.816Z,99616.69
2022-12-15T18:43:25.611Z,99620.75
2022-12-15T18:45:52.478Z,99631.50
2022-12-15T18:48:27.844Z,99621.53
2022-12-15T18:50:55.894Z,99619.09
2022-12-15T18:53:26.968Z,99626.47
2022-12-15T18:55:53.541Z,99628.09
2022-12-15T18:58:27.207Z,99622.13
2022-12-15T19:00:54.944Z,99624.97
2022-12-15T19:03:22.186Z,99625.47
2022-12-15T19:05:50.008Z,99631.94
2022-12-15T19:08:20.260Z,99637.28
2022-12-15T19:10:50.908Z,99647.72
2022-12-15T19:13:20.012Z,99656.47
2022-12-15T19:15:46.928Z,99655.88
2022-12-15T19:18:36.191Z,99657.00
2022-12-15T19:21:42.187Z,99660.28
2022-12-15T19:24:47.391Z,99659.44
2022-12-15T19:27:23.000Z,99662.00
2022-12-15T19:29:50.528Z,99666.47
2022-12-15T19:32:17.062Z,99661.91
2022-12-15T19:34:43.546Z,99654.31
2022-12-15T19:37:23.195Z,99655.59
2022-12-15T19:39:49.881Z,99657.06
2022-12-15T19:42:21.359Z,99660.28
2022-12-15T19:44:48.423Z,99650.16
2022-12-15T19:47:14.901Z,99658.34
2022-12-15T19:49:42.371Z,99655.44
2022-12-15T19:52:15.822Z,99649.34
2022-12-15T19:54:43.277Z,99646.25
2022-12-15T19:57:13.941Z,99643.38
2022-12-15T19:59:40.801Z,99657.69
2022-12-15T20:02:15.454Z,99650.94
2022-12-15T20:04:42.009Z,99655.56
2022-12-15T20:07:18.564Z,99659.31
2022-12-15T20:09:45.198Z,99654.81
2022-12-15T20:12:18.743Z,99664.00
2022-12-15T20:14:48.661Z,99652.06
2022-12-15T20:17:15.159Z,99656.00
2022-12-15T20:19:42.317Z,99645.88
2022-12-15T20:22:17.279Z,99651.44
2022-12-15T20:24:44.617Z,99652.28
2022-12-15T20:27:18.392Z,99655.28
2022-12-15T20:29:44.979Z,99651.03
2022-12-15T20:32:19.480Z,99653.63
2022-12-15T20:34:46.596Z,99645.63
2022-12-15T20:37:27.608Z,99655.56
2022-12-15T20:39:57.690Z,99658.13
2022-12-15T20:42:24.982Z,99659.72
2022-12-15T20:44:51.521Z,99643.22
2022-12-15T20:47:27.622Z,99650.16
2022-12-15T20:49:55.251Z,99650.72
2022-12-15T20:52:25.578Z,99639.19
2022-12-15T20:54:53.509Z,99654.41
2022-12-15T20:57:20.542Z,99655.03
2022-12-15T20:59:47.184Z,99648.44
2022-12-15T21:02:17.857Z,99647.50
2022-12-15T21:04:44.773Z,99650.25
2022-12-15T21:07:12.145Z,99651.59
2022-12-15T21:09:38.907Z,99657.41
2022-12-15T21:12:16.441Z,99660.00
2022-12-15T21:14:43.028Z,99668.63
2022-12-15T21:17:16.940Z,99665.09
2022-12-15T21:19:44.111Z,99660.31
2022-12-15T21:22:22.077Z,99666.19
2022-12-15T21:24:53.077Z,99662.69
2022-12-15T21:27:20.106Z,99658.00
2022-12-15T21:29:52.270Z,99659.69
2022-12-15T21:32:19.731Z,99659.44
2022-12-15T21:34:46.240Z,99661.75
2022-12-15T21:37:23.086Z,99660.91
2022-12-15T21:39:49.516Z,99671.00
2022-12-15T21:42:17.354Z,99672.81
2022-12-15T21:44:44.578Z,99664.78
2022-12-15T21:47:24.198Z,99666.59
2022-12-15T21:49:50.913Z,99655.97
2022-12-15T21:52:17.919Z,99672.66
2022-12-15T21:54:44.728Z,99670.25
2022-12-15T21:57:12.329Z,99660.66
2022-12-15T21:59:39.086Z,99658.66
2022-12-15T22:02:26.037Z,99652.00
2022-12-15T22:04:52.999Z,99656.84
2022-12-15T22:07:21.538Z,99646.22
2022-12-15T22:09:48.103Z,99646.03
2022-12-15T22:12:24.537Z,99639.69
2022-12-15T22:14:52.086Z,99638.88
2022-12-15T22:17:22.376Z,99646.72
2022-12-15T22:19:48.856Z,99650.72
2022-12-15T22:22:16.641Z,99658.38
2022-12-15T22:24:43.174Z,99650.41
2022-12-15T22:27:22.057Z,99656.38
2022-12-15T22:29:49.238Z,99660.75
2022-12-15T22:32:16.358Z,99669.28
2022-12-15T22:34:43.162Z,99676.81
2022-12-15T22:37:09.570Z,99682.38
2022-12-15T22:39:35.993Z,99690.53
2022-12-15T22:42:04.294Z,99689.22
2022-12-15T22:44:33.718Z,99683.97
2022-12-15T22:47:01.576Z,99687.84
2022-12-15T22:49:31.020Z,99694.44
2022-12-15T22:51:58.077Z,99690.16
2022-12-15T22:54:26.275Z,99691.63
2022-12-15T22:56:59.164Z,99690.81
2022-12-15T22:59:41.236Z,99688.41
2022-12-15T23:02:08.985Z,99683.56
2022-12-15T23:04:35.932Z,99685.84
2022-12-15T23:07:04.115Z,99690.44
2022-12-15T23:09:30.827Z,99679.03
2022-12-15T23:11:58.922Z,99674.22
2022-12-15T23:14:44.196Z,99674.94
2022-12-15T23:17:11.960Z,99671.00
2022-12-15T23:19:45.906Z,99675.66
2022-12-15T23:22:12.764Z,99678.00
2022-12-15T23:24:39.169Z,99672.94
2022-12-15T23:27:05.732Z,99678.66
2022-12-15T23:29:32.361Z,99682.03
2022-12-15T23:31:58.779Z,99691.94
2022-12-15T23:34:25.314Z,99689.69
2022-12-15T23:36:51.992Z,99680.22
2022-12-15T23:39:18.415Z,99680.34
2022-12-15T23:41:44.970Z,99682.22
2022-12-15T23:44:12.337Z,99692.41
2022-12-15T23:46:38.818Z,99688.97
2022-12-15T23:49:05.395Z,99684.03
2022-12-15T23:51:32.522Z,99685.00
2022-12-15T23:53:59.651Z,99687.34
2022-12-15T23:56:26.220Z,99689.03
2022-12-15T23:58:57.552Z,99681.13
